Time;durP1;ratioP1;P1;durP2;ratioP2;P2;SDS_P1;SDS_P2;PMS_P1;PMS_P2;Temp;Humidity;BMP_temperature;BMP_pressure;BME280_temperature;BME280_humidity;BME280_pressure;Samples;Min_cycle;Max_cycle;Signal;HPM_P1;HPM_P2
2023/08/22 00:01:56;;;;;;;10.38;9.07;;;;;;;24.46;51.39;95300.91;4997770;28;20044;-92
2023/08/22 00:04:22;;;;;;;9.55;8.45;;;;;;;24.46;51.60;95300.16;4979052;28;20152;-91
2023/08/22 00:06:47;;;;;;;9.75;8.80;;;;;;;24.36;51.62;95310.91;4994353;28;20520;-91
2023/08/22 00:09:13;;;;;;;10.95;9.82;;;;;;;24.25;51.96;95311.72;5020174;28;20090;-91
2023/08/22 00:11:38;;;;;;;11.15;9.15;;;;;;;24.11;52.30;95312.81;4986556;28;20528;-91
2023/08/22 00:14:03;;;;;;;11.82;9.75;;;;;;;24.07;52.73;95323.56;4980149;28;20034;-91
2023/08/22 00:16:29;;;;;;;11.25;9.38;;;;;;;24.04;52.65;95318.97;4994953;28;20034;-91
2023/08/22 00:18:55;;;;;;;8.70;7.82;;;;;;;24.09;52.75;95332.25;4994549;28;20113;-91
2023/08/22 00:21:20;;;;;;;11.20;9.05;;;;;;;24.00;52.90;95322.06;4977899;28;20415;-91
2023/08/22 00:23:46;;;;;;;9.20;8.27;;;;;;;23.93;53.23;95319.78;4994245;28;20105;-91
2023/08/22 00:26:11;;;;;;;8.73;7.90;;;;;;;23.90;53.25;95320.81;4978405;28;20026;-91
2023/08/22 00:28:37;;;;;;;10.93;8.95;;;;;;;23.91;53.19;95324.38;4977388;28;20025;-89
2023/08/22 00:31:02;;;;;;;9.52;8.52;;;;;;;23.89;53.35;95322.09;4978266;28;20345;-91
2023/08/22 00:33:27;;;;;;;9.02;8.13;;;;;;;23.86;53.38;95311.91;4993532;28;20033;-90
2023/08/22 00:35:53;;;;;;;10.43;9.05;;;;;;;23.77;53.44;95306.56;5011481;28;20083;-92
2023/08/22 00:38:18;;;;;;;9.32;8.32;;;;;;;23.78;53.23;95317.28;4993043;28;20026;-91
2023/08/22 00:40:44;;;;;;;11.07;8.65;;;;;;;23.74;53.63;95305.56;4993255;28;20108;-91
2023/08/22 00:43:09;;;;;;;9.85;8.68;;;;;;;23.74;53.57;95313.19;4977171;28;20041;-91
2023/08/22 00:45:36;;;;;;;9.52;8.57;;;;;;;23.70;54.00;95304.31;5010759;28;20119;-91
2023/08/22 00:48:01;;;;;;;11.07;9.15;;;;;;;23.74;53.66;95314.00;4994216;28;20030;-91
2023/08/22 00:50:27;;;;;;;9.80;8.80;;;;;;;23.70;53.78;95304.31;4976403;28;20503;-93
2023/08/22 00:52:52;;;;;;;9.80;8.80;;;;;;;23.73;53.91;95309.63;4993899;28;20463;-91
2023/08/22 00:55:18;;;;;;;9.98;8.98;;;;;;;23.68;54.05;95301.22;4976364;28;20457;-91
2023/08/22 00:57:44;;;;;;;11.07;9.00;;;;;;;23.66;53.99;95301.75;4977658;28;20026;-91
2023/08/22 01:00:10;;;;;;;9.60;8.60;;;;;;;23.65;54.06;95307.88;5012274;28;20511;-89
2023/08/22 01:02:38;;;;;;;10.45;9.40;;;;;;;23.63;53.78;95311.22;5012971;28;20026;-89
2023/08/22 01:05:04;;;;;;;9.98;8.98;;;;;;;23.60;53.60;95303.78;4977051;28;20040;-90
2023/08/22 01:07:55;;;;;;;10.68;8.60;;;;;;;23.59;53.77;95308.63;4976214;28;20113;-89
2023/08/22 01:10:29;;;;;;;13.50;9.48;;;;;;;23.53;53.88;95310.69;4992854;28;20184;-92
2023/08/22 01:13:08;;;;;;;10.43;9.32;;;;;;;23.48;54.32;95314.28;4994237;28;20034;-92
2023/08/22 01:15:35;;;;;;;10.65;8.52;;;;;;;23.48;54.19;95317.06;4976039;28;20042;-92
2023/08/22 01:18:04;;;;;;;10.02;8.70;;;;;;;23.46;54.32;95314.03;4976904;28;20030;-91
2023/08/22 01:20:30;;;;;;;9.18;8.27;;;;;;;23.44;54.57;95318.59;4976526;28;20029;-92
2023/08/22 01:22:56;;;;;;;10.27;9.27;;;;;;;23.45;54.43;95320.13;4993202;28;20092;-93
2023/08/22 01:25:23;;;;;;;11.32;9.02;;;;;;;23.39;54.65;95308.91;4994634;28;20026;-92
2023/08/22 01:28:05;;;;;;;13.18;9.00;;;;;;;23.43;54.59;95319.88;4993960;28;20109;-91
2023/08/22 01:30:46;;;;;;;10.10;9.17;;;;;;;23.44;54.71;95315.81;4994058;28;20030;-91
2023/08/22 01:33:38;;;;;;;12.75;9.18;;;;;;;23.43;54.63;95309.44;4975926;28;20042;-91
2023/08/22 01:36:06;;;;;;;10.35;8.80;;;;;;;23.43;54.71;95317.09;4976268;28;20482;-91
2023/08/22 01:38:32;;;;;;;10.52;9.30;;;;;;;23.42;54.98;95310.72;4992418;28;20106;-91
2023/08/22 01:40:58;;;;;;;11.23;9.55;;;;;;;23.42;55.22;95315.56;4976363;28;20032;-91
2023/08/22 01:43:24;;;;;;;11.55;9.38;;;;;;;23.35;55.03;95304.88;4976566;28;20267;-90
2023/08/22 01:45:50;;;;;;;11.02;8.85;;;;;;;23.35;54.88;95313.28;4992283;28;20418;-90
2023/08/22 01:48:16;;;;;;;9.88;8.70;;;;;;;23.33;55.27;95313.78;4992780;28;20017;-92
2023/08/22 01:50:41;;;;;;;10.77;8.95;;;;;;;23.30;55.21;95321.19;4991765;28;20037;-91
2023/08/22 01:53:06;;;;;;;12.95;9.68;;;;;;;23.24;55.25;95312.03;4994342;28;20132;-91
2023/08/22 01:55:32;;;;;;;10.45;8.65;;;;;;;23.27;55.20;95316.59;4978658;28;20022;-91
2023/08/22 01:57:57;;;;;;;10.50;9.30;;;;;;;23.25;55.25;95324.00;4993825;28;20025;-91
2023/08/22 02:00:23;;;;;;;10.90;9.43;;;;;;;23.25;55.31;95307.16;4977056;28;20046;-91
2023/08/22 02:02:48;;;;;;;9.88;8.98;;;;;;;23.27;55.19;95313.03;5006365;28;20035;-91
2023/08/22 02:05:14;;;;;;;12.05;8.82;;;;;;;23.23;55.46;95315.34;4979763;28;20034;-91
2023/08/22 02:07:39;;;;;;;11.73;9.20;;;;;;;23.22;55.42;95308.94;4976451;28;20428;-91
2023/08/22 02:10:06;;;;;;;10.05;8.73;;;;;;;23.20;55.41;95319.91;4976874;28;20057;-92
2023/08/22 02:12:31;;;;;;;9.80;8.80;;;;;;;23.16;55.24;95308.19;4978192;28;20051;-92
2023/08/22 02:14:57;;;;;;;10.52;9.43;;;;;;;23.17;55.47;95303.34;4977422;28;20532;-92
2023/08/22 02:17:22;;;;;;;9.65;8.57;;;;;;;23.13;55.49;95309.22;4976626;28;20396;-91
2023/08/22 02:19:48;;;;;;;11.70;8.80;;;;;;;23.09;55.76;95305.16;4975722;28;20034;-91
2023/08/22 02:22:13;;;;;;;10.23;9.20;;;;;;;23.10;55.69;95310.22;5009456;28;20484;-91
2023/08/22 02:24:38;;;;;;;10.38;9.38;;;;;;;23.09;55.72;95313.56;4992335;28;20088;-91
2023/08/22 02:27:04;;;;;;;13.93;9.27;;;;;;;23.07;55.84;95305.66;4976280;28;20124;-91
2023/08/22 02:29:30;;;;;;;10.27;9.25;;;;;;;23.05;55.76;95314.59;4991860;28;20065;-92
2023/08/22 02:31:55;;;;;;;11.10;9.88;;;;;;;22.98;56.11;95309.47;4976016;28;20108;-89
2023/08/22 02:34:21;;;;;;;11.27;10.13;;;;;;;22.98;56.09;95312.28;4975295;28;20416;-89
2023/08/22 02:36:47;;;;;;;12.50;10.13;;;;;;;22.98;55.99;95317.88;4991552;28;20034;-92
2023/08/22 02:39:13;;;;;;;11.57;10.35;;;;;;;22.92;55.89;95319.94;4992212;28;20026;-92
2023/08/22 02:41:38;;;;;;;14.15;10.30;;;;;;;22.90;56.05;95316.88;4991431;28;20370;-91
2023/08/22 02:44:04;;;;;;;13.57;9.85;;;;;;;22.91;56.29;95317.63;4992270;28;20084;-90
2023/08/22 02:46:29;;;;;;;11.45;9.80;;;;;;;22.90;56.47;95319.69;4991522;28;20101;-90
2023/08/22 02:48:55;;;;;;;12.25;10.00;;;;;;;22.87;56.39;95315.06;5009579;28;20037;-91
2023/08/22 02:51:20;;;;;;;10.82;9.48;;;;;;;22.85;56.36;95319.66;4975768;28;20053;-91
2023/08/22 02:53:46;;;;;;;13.57;10.52;;;;;;;22.82;56.69;95323.44;4975867;28;20037;-91
2023/08/22 02:56:11;;;;;;;11.35;10.15;;;;;;;22.83;56.41;95325.78;4975544;28;20435;-90
2023/08/22 02:58:37;;;;;;;11.25;9.77;;;;;;;22.78;56.60;95320.91;4997076;28;20030;-91
2023/08/22 03:01:04;;;;;;;10.70;9.70;;;;;;;22.80;56.57;95321.16;5015701;28;20030;-92
2023/08/22 03:03:32;;;;;;;11.80;9.60;;;;;;;22.74;56.67;95314.78;4998264;28;20053;-91
2023/08/22 03:06:00;;;;;;;12.02;9.85;;;;;;;22.77;56.59;95330.59;4998585;28;20033;-91
2023/08/22 03:08:26;;;;;;;10.38;9.23;;;;;;;22.77;56.53;95322.19;4979855;28;20021;-91
2023/08/22 03:10:52;;;;;;;10.85;9.75;;;;;;;22.72;56.80;95322.97;4993641;28;20021;-91
2023/08/22 03:13:17;;;;;;;13.25;10.77;;;;;;;22.69;56.61;95321.91;4991931;28;20030;-91
2023/08/22 03:15:44;;;;;;;11.75;10.55;;;;;;;22.69;56.51;95321.91;4991507;28;20410;-91
2023/08/22 03:18:09;;;;;;;10.90;9.70;;;;;;;22.65;57.00;95320.63;4975069;28;20052;-91
2023/08/22 03:20:34;;;;;;;11.13;9.52;;;;;;;22.63;57.05;95323.19;5008980;28;20018;-91
2023/08/22 03:23:00;;;;;;;10.60;9.50;;;;;;;22.64;57.23;95339.47;4992143;28;20057;-92
2023/08/22 03:25:26;;;;;;;15.82;10.23;;;;;;;22.56;56.96;95340.50;4995264;28;20068;-90
2023/08/22 03:27:51;;;;;;;14.13;9.82;;;;;;;22.56;56.79;95335.66;4978574;28;20117;-92
2023/08/22 03:30:17;;;;;;;11.77;10.00;;;;;;;22.56;57.13;95344.06;4995216;28;20042;-91
2023/08/22 03:32:42;;;;;;;15.07;10.80;;;;;;;22.52;56.77;95344.31;4978477;28;20442;-91
2023/08/22 03:35:08;;;;;;;11.15;9.70;;;;;;;22.50;57.34;95349.66;4994609;28;20030;-91
2023/08/22 03:37:33;;;;;;;11.73;10.32;;;;;;;22.45;57.18;95346.84;4994626;28;20019;-90
2023/08/22 03:39:59;;;;;;;11.30;10.20;;;;;;;22.47;57.17;95350.66;4978193;28;20029;-91
2023/08/22 03:42:24;;;;;;;11.13;10.02;;;;;;;22.45;57.30;95349.63;4994471;28;20034;-91
2023/08/22 03:44:50;;;;;;;13.40;10.30;;;;;;;22.40;57.07;95342.00;4995060;28;20087;-89
2023/08/22 03:47:16;;;;;;;11.52;10.35;;;;;;;22.39;57.26;95343.25;4979671;28;20136;-91
2023/08/22 03:49:41;;;;;;;11.32;9.85;;;;;;;22.34;57.27;95349.59;4995619;28;20074;-91
2023/08/22 03:52:07;;;;;;;12.88;10.75;;;;;;;22.38;57.08;95353.69;5011774;28;20490;-90
2023/08/22 03:54:32;;;;;;;11.18;9.95;;;;;;;22.31;57.35;95348.59;4983345;28;20037;-90
2023/08/22 03:56:58;;;;;;;12.30;10.15;;;;;;;22.24;57.35;95344.22;5004964;28;20538;-92
2023/08/22 03:59:23;;;;;;;10.90;9.60;;;;;;;22.21;57.40;95345.25;4979318;28;20032;-91
2023/08/22 04:01:48;;;;;;;11.88;10.35;;;;;;;22.14;57.64;95348.53;4994576;28;20053;-91
2023/08/22 04:04:14;;;;;;;12.05;10.43;;;;;;;22.13;57.49;95346.97;4978411;28;20030;-91
2023/08/22 04:06:41;;;;;;;13.40;9.93;;;;;;;22.12;58.17;95345.47;4995637;28;20028;-91
2023/08/22 04:09:06;;;;;;;15.80;10.30;;;;;;;22.13;57.84;95343.41;4977696;28;20026;-90
2023/08/22 04:11:32;;;;;;;11.07;9.23;;;;;;;22.12;57.72;95351.06;4995469;28;20033;-90
2023/08/22 04:13:57;;;;;;;12.20;10.75;;;;;;;22.06;57.73;95344.66;4993888;28;20026;-91
2023/08/22 04:16:23;;;;;;;14.15;10.75;;;;;;;22.05;57.86;95347.97;4993717;28;20037;-91
2023/08/22 04:18:48;;;;;;;12.48;10.02;;;;;;;22.11;58.16;95354.38;4994194;28;20034;-89
2023/08/22 04:21:13;;;;;;;12.38;10.23;;;;;;;22.11;58.06;95354.38;4994112;28;20029;-91
2023/08/22 04:23:39;;;;;;;13.23;10.80;;;;;;;22.12;57.79;95353.84;5011996;28;20029;-92
2023/08/22 04:26:05;;;;;;;12.77;10.65;;;;;;;22.10;58.05;95358.44;4976708;28;20022;-89
2023/08/22 04:28:30;;;;;;;12.13;10.68;;;;;;;22.11;57.71;95349.53;4977891;28;20030;-91
2023/08/22 04:30:59;;;;;;;12.38;11.07;;;;;;;22.12;58.19;95355.91;4993474;28;20129;-90
2023/08/22 04:33:25;;;;;;;12.20;11.02;;;;;;;22.13;57.89;95363.78;4994196;28;20107;-91
2023/08/22 04:35:50;;;;;;;17.67;11.30;;;;;;;22.12;58.15;95369.91;4977007;28;20057;-90
2023/08/22 04:38:16;;;;;;;14.93;11.13;;;;;;;22.13;58.16;95372.19;4977183;28;20488;-89
2023/08/22 04:40:44;;;;;;;11.98;10.77;;;;;;;22.16;57.74;95376.03;4993278;28;20037;-91
2023/08/22 04:43:10;;;;;;;14.10;11.35;;;;;;;22.20;57.59;95382.16;4976827;28;20088;-89
2023/08/22 04:45:35;;;;;;;14.13;10.95;;;;;;;22.22;57.85;95388.78;4977300;28;20026;-91
2023/08/22 04:48:01;;;;;;;15.45;11.45;;;;;;;22.24;57.52;95386.22;4992825;28;20080;-91
2023/08/22 04:50:26;;;;;;;15.95;11.88;;;;;;;22.24;57.67;95386.22;4994017;28;20022;-91
2023/08/22 04:52:52;;;;;;;13.10;11.23;;;;;;;22.24;57.42;95393.88;4993085;28;20034;-90
2023/08/22 04:55:17;;;;;;;14.88;11.77;;;;;;;22.24;57.80;95383.44;4978508;28;20084;-90
2023/08/22 04:57:42;;;;;;;15.05;11.52;;;;;;;22.24;57.83;95383.44;4993044;28;20415;-90
2023/08/22 05:00:11;;;;;;;13.10;11.77;;;;;;;22.26;57.88;95388.53;4976559;28;20026;-91
2023/08/22 05:02:37;;;;;;;15.70;12.23;;;;;;;22.30;57.92;95389.03;4993603;28;20056;-91
2023/08/22 05:05:03;;;;;;;13.40;11.07;;;;;;;22.33;57.67;95390.84;4992452;28;20428;-90
2023/08/22 05:07:29;;;;;;;16.92;11.93;;;;;;;22.37;57.66;95390.63;4976900;28;20095;-91
2023/08/22 05:09:55;;;;;;;17.90;12.45;;;;;;;22.38;57.78;95383.75;4992260;28;20479;-91
2023/08/22 05:12:20;;;;;;;17.02;12.65;;;;;;;22.44;57.48;95387.34;4977332;28;20033;-91
2023/08/22 05:14:46;;;;;;;24.25;12.57;;;;;;;22.41;57.62;95383.50;4993135;28;20041;-89
2023/08/22 05:17:11;;;;;;;14.77;12.00;;;;;;;22.45;57.41;95386.81;5010261;28;20037;-91
2023/08/22 05:19:37;;;;;;;15.90;12.98;;;;;;;22.42;57.38;95379.44;5009778;28;20022;-91
2023/08/22 05:22:02;;;;;;;13.43;11.32;;;;;;;22.48;57.78;95390.63;5009727;28;20483;-91
2023/08/22 05:24:28;;;;;;;18.20;12.23;;;;;;;22.55;57.70;95395.00;4976329;28;20038;-91
2023/08/22 05:26:53;;;;;;;14.27;12.07;;;;;;;22.52;57.61;95386.31;5009681;28;20105;-91
2023/08/22 05:29:20;;;;;;;13.98;12.10;;;;;;;22.56;57.27;95383.28;4992540;28;20030;-91
2023/08/22 05:31:46;;;;;;;12.77;11.45;;;;;;;22.60;57.17;95375.41;4992345;28;20038;-91
2023/08/22 05:34:11;;;;;;;14.02;11.80;;;;;;;22.67;57.43;95382.56;4976227;28;20033;-91
2023/08/22 05:36:37;;;;;;;15.45;12.52;;;;;;;22.80;56.83;95383.59;4992600;28;20038;-91
2023/08/22 05:39:03;;;;;;;16.58;11.32;;;;;;;22.83;57.15;95381.06;4996018;28;20032;-90
2023/08/22 05:41:29;;;;;;;12.70;10.57;;;;;;;22.84;56.64;95382.59;4992270;28;20206;-91
2023/08/22 05:43:54;;;;;;;13.02;11.73;;;;;;;22.87;56.83;95382.34;5009950;28;20022;-90
2023/08/22 05:46:20;;;;;;;16.42;11.80;;;;;;;22.95;56.36;95383.41;5009487;28;20096;-90
2023/08/22 05:48:45;;;;;;;11.70;10.60;;;;;;;22.97;56.42;95383.63;4989967;28;20125;-91
2023/08/22 05:51:11;;;;;;;12.00;10.77;;;;;;;22.97;56.34;95380.84;4979846;28;20327;-91
2023/08/22 05:53:36;;;;;;;12.27;10.38;;;;;;;23.00;56.21;95376.28;5010566;28;20089;-90
2023/08/22 05:56:02;;;;;;;14.35;11.82;;;;;;;23.14;55.66;95377.28;4976418;28;20119;-91
2023/08/22 05:58:27;;;;;;;11.95;10.73;;;;;;;23.14;55.75;95371.69;4976404;28;20496;-88
2023/08/22 06:00:52;;;;;;;13.30;10.05;;;;;;;23.19;55.54;95376.53;4992299;28;20026;-90
2023/08/22 06:03:18;;;;;;;11.85;10.27;;;;;;;23.22;55.26;95373.44;4975949;28;20127;-91
2023/08/22 06:05:44;;;;;;;13.40;10.30;;;;;;;23.34;55.34;95377.03;4991732;28;20018;-91
2023/08/22 06:08:09;;;;;;;12.93;10.45;;;;;;;23.38;55.15;95376.75;4991818;28;20497;-91
2023/08/22 06:10:35;;;;;;;14.32;9.77;;;;;;;23.42;55.07;95382.88;4991059;28;20112;-92
2023/08/22 06:13:00;;;;;;;11.52;10.35;;;;;;;23.56;54.93;95381.84;4976050;28;20079;-89
2023/08/22 06:15:25;;;;;;;13.40;9.82;;;;;;;23.65;54.76;95383.66;5008940;28;20440;-91
2023/08/22 06:17:51;;;;;;;11.73;10.57;;;;;;;23.67;54.29;95372.66;4991630;28;20030;-90
2023/08/22 06:20:16;;;;;;;12.50;11.20;;;;;;;23.77;54.29;95380.31;5009104;28;20110;-92
2023/08/22 06:22:42;;;;;;;13.30;11.55;;;;;;;23.78;54.05;95376.22;4975237;28;20048;-91
2023/08/22 06:25:08;;;;;;;15.95;10.70;;;;;;;23.75;54.25;95373.69;4992369;28;20048;-90
2023/08/22 06:27:33;;;;;;;14.35;11.23;;;;;;;23.80;54.20;95376.50;4991781;28;20033;-90
2023/08/22 06:30:00;;;;;;;16.13;11.10;;;;;;;23.79;54.47;95374.16;5011413;28;20403;-92
2023/08/22 06:32:25;;;;;;;11.98;10.77;;;;;;;23.88;54.35;95373.91;4991778;28;20058;-91
2023/08/22 06:34:51;;;;;;;14.15;10.95;;;;;;;23.94;54.24;95380.25;4976081;28;20022;-91
2023/08/22 06:37:16;;;;;;;14.10;11.30;;;;;;;24.05;53.92;95385.09;4991419;28;20432;-91
2023/08/22 06:39:42;;;;;;;14.40;11.68;;;;;;;24.11;53.80;95372.56;4991547;28;20033;-92
2023/08/22 06:42:07;;;;;;;14.13;11.65;;;;;;;24.26;53.31;95382.72;4975869;28;20026;-91
2023/08/22 06:44:32;;;;;;;15.75;12.35;;;;;;;24.31;53.24;95381.91;5009696;28;20054;-91
2023/08/22 06:46:58;;;;;;;16.58;11.60;;;;;;;24.28;53.31;95371.72;4992209;28;20492;-91
2023/08/22 06:49:23;;;;;;;12.32;11.02;;;;;;;24.31;53.40;95370.69;4975578;28;20026;-92
2023/08/22 06:51:49;;;;;;;16.67;10.77;;;;;;;24.42;53.25;95375.50;4992718;28;20178;-91
2023/08/22 06:54:14;;;;;;;12.57;10.80;;;;;;;24.46;52.95;95373.97;4975781;28;20029;-91
2023/08/22 06:56:39;;;;;;;11.77;10.60;;;;;;;24.54;53.10;95371.34;4975866;28;20022;-92
2023/08/22 06:59:05;;;;;;;13.20;10.75;;;;;;;24.55;52.82;95365.25;4994170;28;20072;-91
2023/08/22 07:01:30;;;;;;;16.65;11.73;;;;;;;24.73;52.41;95377.16;4978502;28;20122;-91
2023/08/22 07:03:56;;;;;;;15.75;11.50;;;;;;;24.82;52.20;95376.81;4996033;28;20057;-93
2023/08/22 07:06:21;;;;;;;16.35;11.25;;;;;;;24.89;52.19;95374.22;4979272;28;20038;-91
2023/08/22 07:08:46;;;;;;;12.52;11.23;;;;;;;25.01;51.98;95365.72;4979229;28;20496;-92
2023/08/22 07:11:12;;;;;;;12.85;11.55;;;;;;;25.12;51.79;95360.03;4996973;28;20105;-92
2023/08/22 07:13:37;;;;;;;12.77;10.68;;;;;;;25.22;51.62;95368.91;5017065;28;20045;-92
2023/08/22 07:16:03;;;;;;;15.07;11.52;;;;;;;25.32;51.45;95364.47;4997210;28;20037;-93
2023/08/22 07:18:28;;;;;;;13.35;11.10;;;;;;;25.43;50.95;95361.56;4995783;28;20026;-92
2023/08/22 07:20:54;;;;;;;12.15;9.98;;;;;;;25.58;50.41;95367.56;4979273;28;20577;-92
2023/08/22 07:23:20;;;;;;;11.02;9.93;;;;;;;25.68;50.12;95370.78;4995745;28;20030;-92
2023/08/22 07:25:49;;;;;;;11.40;10.27;;;;;;;25.75;50.07;95367.44;4995540;28;20040;-92
2023/08/22 07:28:15;;;;;;;11.88;9.68;;;;;;;25.84;49.58;95367.06;4978588;28;20026;-92
2023/08/22 07:30:41;;;;;;;11.98;10.02;;;;;;;25.95;49.50;95369.00;4997162;28;20070;-91
2023/08/22 07:33:07;;;;;;;11.60;10.43;;;;;;;26.08;49.15;95362.72;5015056;28;20045;-92
2023/08/22 07:35:35;;;;;;;13.07;10.20;;;;;;;26.26;48.40;95361.97;4981281;28;20033;-92
2023/08/22 07:38:01;;;;;;;13.88;10.30;;;;;;;26.33;48.28;95367.03;4980697;28;20025;-92
2023/08/22 07:40:26;;;;;;;11.55;10.32;;;;;;;26.41;47.78;95355.94;5019625;28;20056;-92
2023/08/22 07:42:52;;;;;;;15.70;11.05;;;;;;;26.55;48.10;95365.22;5009465;28;20030;-93
2023/08/22 07:45:18;;;;;;;15.38;10.85;;;;;;;26.65;47.89;95364.31;4998475;28;20088;-92
2023/08/22 07:47:44;;;;;;;12.93;11.02;;;;;;;26.68;47.95;95366.06;5015269;28;20467;-92
2023/08/22 07:50:10;;;;;;;11.32;9.77;;;;;;;26.76;47.77;95349.31;4998725;28;20415;-91
2023/08/22 07:52:35;;;;;;;12.77;9.98;;;;;;;26.86;47.39;95355.31;5000663;28;20408;-92
2023/08/22 07:55:01;;;;;;;11.75;10.55;;;;;;;27.02;47.11;95359.97;5000267;28;20453;-92
2023/08/22 07:57:26;;;;;;;11.38;10.02;;;;;;;27.11;47.03;95356.75;5001270;28;20060;-92
2023/08/22 07:59:51;;;;;;;12.65;10.02;;;;;;;27.28;46.50;95350.84;4988450;28;20018;-92
2023/08/22 08:02:17;;;;;;;12.85;9.13;;;;;;;27.40;46.16;95345.75;4986618;28;20030;-94
2023/08/22 08:04:42;;;;;;;12.88;10.15;;;;;;;27.50;46.16;95358.94;4984696;28;20029;-92
2023/08/22 08:07:08;;;;;;;12.02;8.73;;;;;;;27.63;45.79;95346.88;5019324;28;20424;-91
2023/08/22 08:09:33;;;;;;;11.77;8.68;;;;;;;27.81;45.39;95358.66;4999989;28;20032;-92
2023/08/22 08:11:59;;;;;;;13.55;8.13;;;;;;;27.96;44.79;95354.00;4985974;28;20018;-94
2023/08/22 08:14:24;;;;;;;12.13;8.80;;;;;;;28.10;44.58;95356.84;5001396;28;20156;-92
2023/08/22 08:16:50;;;;;;;11.75;8.60;;;;;;;28.31;43.24;95344.31;4981769;28;20037;-92
2023/08/22 08:19:15;;;;;;;9.60;8.60;;;;;;;28.36;43.42;95344.78;4997579;28;20165;-93
2023/08/22 08:21:41;;;;;;;11.45;8.90;;;;;;;28.47;43.42;95342.47;4999453;28;20033;-93
2023/08/22 08:24:07;;;;;;;10.48;9.00;;;;;;;28.63;42.98;95345.50;4998492;28;20058;-92
2023/08/22 08:26:32;;;;;;;12.63;8.32;;;;;;;28.69;42.49;95348.97;4999577;28;20049;-93
2023/08/22 08:28:58;;;;;;;11.13;8.48;;;;;;;28.83;42.73;95342.69;5001580;28;20085;-93
2023/08/22 08:31:23;;;;;;;10.90;8.38;;;;;;;29.04;41.93;95345.59;4981402;28;20034;-87
2023/08/22 08:33:49;;;;;;;12.48;8.18;;;;;;;29.19;41.06;95336.50;4992481;28;20385;-86
2023/08/22 08:36:14;;;;;;;11.90;8.30;;;;;;;29.28;40.43;95340.91;4976547;28;20120;-89
2023/08/22 08:38:40;;;;;;;9.10;8.18;;;;;;;29.34;40.46;95336.63;4994385;28;20034;-87
2023/08/22 08:41:06;;;;;;;8.80;7.72;;;;;;;29.51;40.61;95349.63;4975998;28;20661;-88
2023/08/22 08:43:32;;;;;;;8.32;7.50;;;;;;;29.63;40.15;95342.38;4976544;28;20121;-93
2023/08/22 08:45:58;;;;;;;8.90;8.00;;;;;;;29.81;39.54;95341.38;4992918;28;20503;-90
2023/08/22 08:48:23;;;;;;;11.13;8.18;;;;;;;29.99;38.72;95338.84;4993220;28;20030;-94
2023/08/22 08:50:50;;;;;;;9.40;7.20;;;;;;;30.20;38.29;95338.81;4994592;28;20034;-87
2023/08/22 08:53:16;;;;;;;10.25;7.47;;;;;;;30.34;38.02;95338.16;4976781;28;20090;-88
2023/08/22 08:55:41;;;;;;;8.20;7.15;;;;;;;30.55;37.24;95340.13;4976457;28;20411;-88
2023/08/22 08:58:07;;;;;;;10.68;7.10;;;;;;;30.68;37.28;95331.47;5010122;28;20476;-88
2023/08/22 09:00:33;;;;;;;7.32;6.55;;;;;;;30.92;37.09;95333.84;4992649;28;20041;-90
2023/08/22 09:02:59;;;;;;;10.10;7.32;;;;;;;31.12;35.61;95322.91;4976506;28;20030;-91
2023/08/22 09:05:25;;;;;;;10.77;7.10;;;;;;;31.30;35.29;95329.59;4976456;28;20384;-90
2023/08/22 09:07:50;;;;;;;11.98;6.47;;;;;;;31.56;33.86;95331.31;4977249;28;20018;-91
2023/08/22 09:10:34;;;;;;;7.68;6.53;;;;;;;31.80;34.00;95330.00;4976524;28;20427;-92
2023/08/22 09:13:04;;;;;;;11.63;7.35;;;;;;;31.93;33.61;95330.53;4992463;28;20030;-92
2023/08/22 09:15:30;;;;;;;9.38;6.90;;;;;;;32.14;33.14;95326.72;4977156;28;20088;-92
2023/08/22 09:17:55;;;;;;;7.07;5.72;;;;;;;32.35;32.28;95326.50;4992778;28;20021;-92
2023/08/22 09:20:21;;;;;;;6.10;5.50;;;;;;;32.57;31.36;95322.81;4992322;28;20033;-92
2023/08/22 09:22:46;;;;;;;8.98;5.00;;;;;;;32.77;29.49;95312.47;4992827;28;20056;-91
2023/08/22 09:25:12;;;;;;;7.07;5.90;;;;;;;32.97;29.45;95319.97;4998075;28;20460;-91
2023/08/22 09:27:37;;;;;;;9.57;5.93;;;;;;;33.10;29.17;95315.38;4995365;28;20026;-92
2023/08/22 09:30:06;;;;;;;8.43;5.43;;;;;;;33.25;30.28;95315.25;4993310;28;20455;-92
2023/08/22 09:32:32;;;;;;;5.70;4.90;;;;;;;33.43;29.54;95313.25;4991385;28;20053;-92
2023/08/22 09:35:00;;;;;;;8.43;5.60;;;;;;;33.69;29.49;95311.91;5002111;28;20023;-91
2023/08/22 09:37:37;;;;;;;7.20;5.28;;;;;;;33.88;27.53;95302.78;4978044;28;20026;-92
2023/08/22 09:40:07;;;;;;;11.43;5.72;;;;;;;34.00;26.70;95303.84;4991287;28;20050;-92
2023/08/22 09:42:37;;;;;;;7.78;5.40;;;;;;;34.06;27.15;95305.09;4990010;28;20220;-93
2023/08/22 09:45:04;;;;;;;8.30;6.15;;;;;;;34.11;26.71;95296.88;4974137;28;20121;-93
2023/08/22 09:47:30;;;;;;;10.70;5.25;;;;;;;34.22;27.48;95294.28;4973514;28;20030;-92
2023/08/22 09:49:59;;;;;;;5.32;4.32;;;;;;;34.39;25.95;95293.50;4973964;28;20033;-92
2023/08/22 09:52:25;;;;;;;5.70;4.60;;;;;;;34.61;25.35;95294.59;4989485;28;20037;-92
2023/08/22 09:54:51;;;;;;;7.75;4.93;;;;;;;34.79;25.79;95286.75;4973431;28;20022;-93
2023/08/22 09:57:17;;;;;;;7.32;5.22;;;;;;;34.98;25.30;95278.31;4989027;28;20077;-92
2023/08/22 09:59:45;;;;;;;6.22;4.80;;;;;;;35.16;24.31;95279.03;4975047;28;20081;-93
2023/08/22 10:02:11;;;;;;;8.38;5.50;;;;;;;35.34;24.57;95289.03;4989059;28;20061;-92
2023/08/22 10:04:36;;;;;;;6.53;4.70;;;;;;;35.45;23.46;95273.47;4972422;28;20026;-93
2023/08/22 10:07:02;;;;;;;7.40;5.25;;;;;;;35.48;23.90;95266.53;4990040;28;20026;-93
2023/08/22 10:09:27;;;;;;;6.47;4.45;;;;;;;35.72;24.70;95270.50;4988983;28;20030;-93
2023/08/22 10:12:01;;;;;;;5.85;4.72;;;;;;;35.65;24.16;95274.25;4975945;28;20089;-93
2023/08/22 10:14:39;;;;;;;8.23;5.38;;;;;;;35.59;24.76;95262.34;4990640;28;20496;-93
2023/08/22 10:17:10;;;;;;;10.40;4.93;;;;;;;35.75;24.18;95272.19;4988767;28;20034;-92
2023/08/22 10:19:36;;;;;;;6.47;4.85;;;;;;;35.78;23.67;95261.63;4972866;28;20132;-93
2023/08/22 10:22:06;;;;;;;7.47;5.00;;;;;;;36.02;23.79;95254.94;4988634;28;20484;-93
2023/08/22 10:24:32;;;;;;;8.85;5.32;;;;;;;36.28;24.04;95267.59;4972782;28;20022;-93
2023/08/22 10:27:02;;;;;;;8.77;5.10;;;;;;;36.55;23.60;95267.47;4988727;28;20026;-95
2023/08/22 10:29:35;;;;;;;7.55;5.00;;;;;;;36.66;23.05;95251.78;4988901;28;20026;-93
2023/08/22 10:32:01;;;;;;;5.60;4.35;;;;;;;36.92;23.16;95253.69;4990069;28;20041;-94
2023/08/22 10:34:27;;;;;;;6.85;4.70;;;;;;;37.11;22.97;95244.28;4993713;28;20026;-94
2023/08/22 10:37:02;;;;;;;10.82;5.63;;;;;;;37.36;22.77;95248.88;4976691;28;20058;-93
2023/08/22 10:39:38;;;;;;;8.88;5.00;;;;;;;37.56;22.61;95252.38;4976348;28;20030;-93
2023/08/22 10:42:05;;;;;;;7.63;4.85;;;;;;;37.62;22.32;95252.81;4992916;28;20034;-93
2023/08/22 10:44:30;;;;;;;7.32;5.32;;;;;;;37.76;21.87;95250.16;4992044;28;20034;-93
2023/08/22 10:47:15;;;;;;;6.75;4.88;;;;;;;38.03;21.43;95244.13;4976165;28;20196;-95
2023/08/22 10:49:41;;;;;;;5.63;4.40;;;;;;;38.25;21.33;95243.50;4994656;28;20113;-93
2023/08/22 10:52:11;;;;;;;6.10;4.68;;;;;;;38.25;20.77;95237.75;4993492;28;20511;-94
2023/08/22 10:54:57;;;;;;;9.00;4.82;;;;;;;38.37;21.02;95234.97;4992717;28;20485;-93
2023/08/22 10:57:23;;;;;;;7.72;4.72;;;;;;;38.55;20.74;95231.78;4994299;28;20038;-94
2023/08/22 11:00:18;;;;;;;5.43;4.32;;;;;;;38.77;20.85;95239.00;4994921;28;20068;-93
2023/08/22 11:02:44;;;;;;;6.18;4.47;;;;;;;38.97;20.56;95236.66;4988041;28;20038;-94
2023/08/22 11:05:11;;;;;;;7.07;4.65;;;;;;;38.92;20.13;95237.75;4975488;28;20040;-94
2023/08/22 11:07:39;;;;;;;5.53;4.13;;;;;;;39.04;20.25;95245.03;4992038;28;20560;-94
2023/08/22 11:10:06;;;;;;;6.90;4.32;;;;;;;39.25;20.02;95234.84;4991903;28;20389;-93
2023/08/22 11:12:31;;;;;;;9.80;4.40;;;;;;;39.46;19.54;95248.34;4991399;28;20058;-93
2023/08/22 11:15:00;;;;;;;7.30;4.60;;;;;;;39.60;19.66;95239.81;4992617;28;20031;-93
2023/08/22 11:17:25;;;;;;;5.25;4.70;;;;;;;39.94;19.38;95241.19;4995307;28;20416;-92
2023/08/22 11:19:55;;;;;;;6.15;4.20;;;;;;;40.43;18.97;95241.16;4993226;28;20030;-93
2023/08/22 11:22:21;;;;;;;5.97;4.53;;;;;;;40.77;18.67;95234.50;4990909;28;20030;-93